createdAt,value
2023-05-11T00:00:39.583Z,100774.64
2023-05-11T00:03:06.695Z,100777.10
2023-05-11T00:05:33.807Z,100777.09
2023-05-11T00:08:01.005Z,100780.60
2023-05-11T00:10:28.935Z,100777.93
2023-05-11T00:12:56.513Z,100774.55
2023-05-11T00:15:23.460Z,100776.46
2023-05-11T00:17:50.297Z,100772.55
2023-05-11T00:20:17.604Z,100776.05
2023-05-11T00:22:45.031Z,100775.87
2023-05-11T00:25:12.121Z,100779.89
2023-05-11T00:27:39.618Z,100779.34
2023-05-11T00:30:07.631Z,100775.94
2023-05-11T00:32:34.543Z,100776.61
2023-05-11T00:35:01.458Z,100777.45
2023-05-11T00:37:28.437Z,100772.67
2023-05-11T00:39:55.353Z,100772.11
2023-05-11T00:42:22.239Z,100773.89
2023-05-11T00:44:49.069Z,100776.85
2023-05-11T00:47:16.215Z,100772.43
2023-05-11T00:49:43.254Z,100774.52
2023-05-11T00:52:10.110Z,100774.64
2023-05-11T00:54:37.640Z,100776.16
2023-05-11T00:57:04.717Z,100775.05
2023-05-11T00:59:31.811Z,100777.14
2023-05-11T01:01:58.883Z,100778.89
2023-05-11T01:04:25.855Z,100781.48
2023-05-11T01:07:13.088Z,100778.27
2023-05-11T01:09:47.401Z,100781.77
2023-05-11T01:12:35.657Z,100785.96
2023-05-11T01:15:15.141Z,100785.42
2023-05-11T01:17:52.117Z,100780.11
2023-05-11T01:20:22.724Z,100784.70
2023-05-11T01:23:08.191Z,100787.86
2023-05-11T01:25:56.864Z,100786.63
2023-05-11T01:28:56.304Z,100789.55
2023-05-11T01:31:23.841Z,100788.13
2023-05-11T01:33:55.692Z,100789.85
2023-05-11T01:36:25.152Z,100792.14
2023-05-11T01:38:52.039Z,100793.88
2023-05-11T01:41:20.110Z,100791.05
2023-05-11T01:43:53.321Z,100789.27
2023-05-11T01:46:20.716Z,100788.73
2023-05-11T01:48:49.329Z,100787.48
2023-05-11T01:51:16.219Z,100791.14
2023-05-11T01:53:43.009Z,100791.13
2023-05-11T01:56:11.564Z,100789.86
2023-05-11T01:58:39.334Z,100793.38
2023-05-11T02:01:06.886Z,100793.02
2023-05-11T02:03:35.726Z,100793.34
2023-05-11T02:06:06.575Z,100791.56
2023-05-11T02:08:33.799Z,100792.27
2023-05-11T02:11:01.200Z,100792.80
2023-05-11T02:13:28.737Z,100797.08
2023-05-11T02:15:57.145Z,100798.92
2023-05-11T02:18:24.124Z,100798.82
2023-05-11T02:20:56.842Z,100799.40
2023-05-11T02:23:25.057Z,100803.09
2023-05-11T02:25:55.035Z,100801.33
2023-05-11T02:28:22.184Z,100803.98
2023-05-11T02:30:52.233Z,100809.11
2023-05-11T02:33:33.307Z,100805.08
2023-05-11T02:36:00.222Z,100804.77
2023-05-11T02:38:38.338Z,100807.79
2023-05-11T02:41:09.831Z,100810.27
2023-05-11T02:43:37.197Z,100808.35
2023-05-11T02:46:06.586Z,100812.80
2023-05-11T02:48:39.004Z,100815.71
2023-05-11T02:51:08.542Z,100814.06
2023-05-11T02:53:38.683Z,100813.48
2023-05-11T02:56:06.265Z,100812.48
2023-05-11T02:58:33.283Z,100808.79
2023-05-11T03:01:13.166Z,100811.07
2023-05-11T03:03:40.469Z,100815.40
2023-05-11T03:06:07.442Z,100815.27
2023-05-11T03:08:34.477Z,100814.23
2023-05-11T03:11:02.759Z,100813.87
2023-05-11T03:13:29.584Z,100815.81
2023-05-11T03:15:57.192Z,100818.79
2023-05-11T03:18:24.423Z,100819.67
2023-05-11T03:20:51.425Z,100824.62
2023-05-11T03:23:18.813Z,100821.42
2023-05-11T03:25:45.762Z,100830.45
2023-05-11T03:28:12.980Z,100827.63
2023-05-11T03:30:40.793Z,100830.98
2023-05-11T03:33:07.646Z,100829.93
2023-05-11T03:35:35.198Z,100829.23
2023-05-11T03:38:03.152Z,100831.36
2023-05-11T03:40:31.613Z,100829.08
2023-05-11T03:43:00.423Z,100837.76
2023-05-11T03:45:28.588Z,100841.66
2023-05-11T03:47:55.654Z,100840.96
2023-05-11T03:50:22.600Z,100841.14
2023-05-11T03:52:49.502Z,100844.69
2023-05-11T03:55:16.541Z,100846.63
2023-05-11T03:57:43.515Z,100850.54
2023-05-11T04:00:11.860Z,100848.23
2023-05-11T04:02:44.895Z,100850.90
2023-05-11T04:05:12.965Z,100851.27
2023-05-11T04:07:41.315Z,100851.64
2023-05-11T04:10:08.924Z,100843.81
2023-05-11T04:12:35.860Z,100846.92
2023-05-11T04:15:04.765Z,100844.73
2023-05-11T04:17:31.841Z,100845.91
2023-05-11T04:19:58.736Z,100840.08
2023-05-11T04:22:25.815Z,100832.99
2023-05-11T04:24:52.619Z,100830.19
2023-05-11T04:27:19.592Z,100830.76
2023-05-11T04:29:46.407Z,100832.42
2023-05-11T04:32:13.303Z,100830.61
2023-05-11T04:34:40.146Z,100830.82
2023-05-11T04:37:08.147Z,100833.61
2023-05-11T04:39:36.680Z,100834.07
2023-05-11T04:42:04.143Z,100834.11
2023-05-11T04:44:31.658Z,100836.58
2023-05-11T04:46:58.549Z,100838.86
2023-05-11T04:49:25.434Z,100841.23
2023-05-11T04:51:52.348Z,100840.48
2023-05-11T04:54:19.255Z,100831.60
2023-05-11T04:56:46.662Z,100828.36
2023-05-11T04:59:14.282Z,100829.99
2023-05-11T05:01:41.230Z,100826.59
2023-05-11T05:04:08.857Z,100826.23
2023-05-11T05:06:35.825Z,100826.61
2023-05-11T05:09:03.377Z,100825.44
2023-05-11T05:11:30.465Z,100822.02
2023-05-11T05:13:57.360Z,100824.37
2023-05-11T05:16:24.199Z,100824.79
2023-05-11T05:18:51.373Z,100827.44
2023-05-11T05:21:18.412Z,100819.66
2023-05-11T05:23:45.402Z,100820.38
2023-05-11T05:26:12.214Z,100817.01
2023-05-11T05:28:40.031Z,100820.95
2023-05-11T05:31:06.908Z,100824.09
2023-05-11T05:33:33.940Z,100826.21
2023-05-11T05:36:00.850Z,100823.77
2023-05-11T05:38:27.660Z,100827.30
2023-05-11T05:40:56.195Z,100827.58
2023-05-11T05:43:23.001Z,100830.23
2023-05-11T05:45:50.137Z,100833.14
2023-05-11T05:48:17.032Z,100831.95
2023-05-11T05:50:43.840Z,100831.62
2023-05-11T05:53:10.922Z,100829.23
2023-05-11T05:55:38.070Z,100826.50
2023-05-11T05:58:05.838Z,100817.95
2023-05-11T06:00:32.759Z,100822.23
2023-05-11T06:03:02.933Z,100818.54
2023-05-11T06:05:29.918Z,100817.84
2023-05-11T06:08:09.228Z,100819.42
2023-05-11T06:10:38.350Z,100815.81
2023-05-11T06:13:05.501Z,100815.27
2023-05-11T06:15:32.409Z,100812.11
2023-05-11T06:18:03.292Z,100812.16
2023-05-11T06:20:31.819Z,100815.64
2023-05-11T06:22:58.837Z,100810.33
2023-05-11T06:25:27.745Z,100804.38
2023-05-11T06:27:54.657Z,100801.66
2023-05-11T06:30:24.816Z,100804.30
2023-05-11T06:32:52.200Z,100808.90
2023-05-11T06:35:19.826Z,100811.25
2023-05-11T06:37:47.038Z,100808.77
2023-05-11T06:40:16.544Z,100811.55
2023-05-11T06:42:43.808Z,100812.22
2023-05-11T06:45:11.461Z,100810.36
2023-05-11T06:47:41.777Z,100812.83
2023-05-11T06:50:08.776Z,100813.85
2023-05-11T06:52:37.410Z,100815.36
2023-05-11T06:55:05.058Z,100811.92
2023-05-11T06:57:31.866Z,100809.84
2023-05-11T06:59:58.652Z,100809.51
2023-05-11T07:02:25.620Z,100810.16
2023-05-11T07:04:52.937Z,100809.98
2023-05-11T07:07:20.000Z,100805.11
2023-05-11T07:09:46.930Z,100803.65
2023-05-11T07:12:13.870Z,100805.67
2023-05-11T07:14:40.845Z,100798.61
2023-05-11T07:17:08.043Z,100801.26
2023-05-11T07:19:34.986Z,100801.33
2023-05-11T07:22:02.326Z,100805.23
2023-05-11T07:24:29.220Z,100802.49
2023-05-11T07:26:57.522Z,100798.77
2023-05-11T07:29:24.481Z,100791.39
2023-05-11T07:31:51.826Z,100797.25
2023-05-11T07:34:18.904Z,100798.98
2023-05-11T07:36:46.711Z,100797.20
2023-05-11T07:39:16.266Z,100799.17
2023-05-11T07:41:43.134Z,100802.83
2023-05-11T07:44:10.359Z,100797.98
2023-05-11T07:46:37.274Z,100797.34
2023-05-11T07:49:15.668Z,100799.02
2023-05-11T07:51:47.498Z,100802.13
2023-05-11T07:54:14.507Z,100801.79
2023-05-11T07:56:42.233Z,100796.98
2023-05-11T07:59:09.384Z,100795.72
2023-05-11T08:01:36.975Z,100794.46
2023-05-11T08:04:03.871Z,100798.17
2023-05-11T08:06:31.387Z,100793.80
2023-05-11T08:08:58.458Z,100795.26
2023-05-11T08:11:26.463Z,100797.80
2023-05-11T08:13:53.361Z,100791.47
2023-05-11T08:16:20.339Z,100775.91
2023-05-11T08:18:47.951Z,100774.93
2023-05-11T08:21:14.900Z,100776.83
2023-05-11T08:23:43.909Z,100786.52
2023-05-11T08:26:12.072Z,100790.20
2023-05-11T08:28:38.917Z,100793.60
2023-05-11T08:31:06.573Z,100788.56
2023-05-11T08:33:38.419Z,100793.41
2023-05-11T08:36:07.229Z,100794.77
2023-05-11T08:38:35.526Z,100789.63
2023-05-11T08:41:03.168Z,100792.01
2023-05-11T08:43:29.942Z,100793.48
2023-05-11T08:45:58.185Z,100784.66
2023-05-11T08:48:25.101Z,100792.25
2023-05-11T08:50:52.102Z,100793.26
2023-05-11T08:53:18.922Z,100790.74
2023-05-11T08:55:45.711Z,100792.11
2023-05-11T08:58:15.158Z,100792.02
2023-05-11T09:00:44.394Z,100791.58
2023-05-11T09:03:11.240Z,100785.02
2023-05-11T09:05:38.155Z,100790.40
2023-05-11T09:08:05.222Z,100791.53
2023-05-11T09:10:32.732Z,100791.55
2023-05-11T09:12:59.671Z,100788.24
2023-05-11T09:15:26.925Z,100787.72
2023-05-11T09:17:53.772Z,100788.73
2023-05-11T09:20:28.536Z,100785.30
2023-05-11T09:22:56.344Z,100785.36
2023-05-11T09:25:23.676Z,100781.02
2023-05-11T09:27:50.698Z,100783.17
2023-05-11T09:30:22.405Z,100781.09
2023-05-11T09:32:53.863Z,100776.88
2023-05-11T09:35:22.503Z,100775.45
2023-05-11T09:38:09.872Z,100778.94
2023-05-11T09:40:38.172Z,100779.36
2023-05-11T09:43:24.584Z,100774.54
2023-05-11T09:45:52.603Z,100771.54
2023-05-11T09:48:19.608Z,100768.77
2023-05-11T09:50:50.518Z,100762.73
2023-05-11T09:53:17.425Z,100759.21
2023-05-11T09:55:56.975Z,100756.33
2023-05-11T09:58:24.077Z,100756.63
2023-05-11T10:00:52.026Z,100759.14
2023-05-11T10:03:19.037Z,100751.77
2023-05-11T10:06:00.768Z,100742.55
2023-05-11T10:08:32.182Z,100751.57
2023-05-11T10:10:59.047Z,100751.23
2023-05-11T10:13:27.098Z,100746.02
2023-05-11T10:15:54.754Z,100748.23
2023-05-11T10:18:21.663Z,100747.14
2023-05-11T10:20:48.731Z,100747.64
2023-05-11T10:23:16.628Z,100751.11
2023-05-11T10:25:43.581Z,100747.91
2023-05-11T10:28:10.962Z,100743.34
2023-05-11T10:30:38.192Z,100742.60
2023-05-11T10:35:14.715Z,100745.26
2023-05-11T10:37:42.973Z,100738.31
2023-05-11T10:40:10.783Z,100730.68
2023-05-11T10:42:40.593Z,100725.10
2023-05-11T10:45:17.377Z,100725.56
2023-05-11T10:47:56.530Z,100723.77
2023-05-11T10:50:34.232Z,100719.31
2023-05-11T10:53:19.611Z,100718.88
2023-05-11T10:56:10.384Z,100720.11
2023-05-11T10:58:48.516Z,100717.63
2023-05-11T11:01:21.578Z,100709.17
2023-05-11T11:04:10.986Z,100705.90
2023-05-11T11:06:39.339Z,100703.38
2023-05-11T11:09:15.626Z,100699.96
2023-05-11T11:11:47.506Z,100697.13
2023-05-11T11:14:15.398Z,100700.44
2023-05-11T11:17:09.692Z,100710.65
2023-05-11T11:19:37.753Z,100705.48
2023-05-11T11:22:05.212Z,100703.89
2023-05-11T11:24:35.072Z,100706.40
2023-05-11T11:27:01.968Z,100700.03
2023-05-11T11:29:30.331Z,100696.56
2023-05-11T11:32:19.882Z,100694.33
2023-05-11T11:34:47.390Z,100691.32
2023-05-11T11:37:15.300Z,100693.02
2023-05-11T11:39:42.110Z,100690.73
2023-05-11T11:42:09.950Z,100689.52
2023-05-11T11:44:40.685Z,100691.39
2023-05-11T11:47:20.822Z,100687.70
2023-05-11T11:49:52.404Z,100688.55
2023-05-11T11:52:31.748Z,100678.72
2023-05-11T11:55:02.595Z,100681.71
2023-05-11T11:57:35.816Z,100679.05
2023-05-11T12:00:07.296Z,100677.09
2023-05-11T12:02:44.288Z,100675.58
2023-05-11T12:05:18.784Z,100682.21
2023-05-11T12:07:54.492Z,100678.52
2023-05-11T12:10:22.498Z,100678.98
2023-05-11T12:12:51.015Z,100679.23
2023-05-11T12:15:25.251Z,100670.91
2023-05-11T12:17:52.271Z,100670.48
2023-05-11T12:20:19.804Z,100666.48
2023-05-11T12:22:49.251Z,100662.05
2023-05-11T12:25:18.347Z,100656.86
2023-05-11T12:27:52.777Z,100655.38
2023-05-11T12:30:24.131Z,100657.08
2023-05-11T12:32:56.630Z,100653.27
2023-05-11T12:35:30.922Z,100652.40
2023-05-11T12:37:59.711Z,100650.16
2023-05-11T12:40:26.768Z,100650.72
2023-05-11T12:42:54.921Z,100653.88
2023-05-11T12:45:23.534Z,100652.66
2023-05-11T12:47:51.675Z,100649.97
2023-05-11T12:50:18.925Z,100651.45
2023-05-11T12:52:45.845Z,100653.88
2023-05-11T12:55:12.753Z,100650.20
2023-05-11T12:57:40.235Z,100646.75
2023-05-11T13:00:14.864Z,100651.06
2023-05-11T13:02:50.037Z,100647.88
2023-05-11T13:05:19.453Z,100650.14
2023-05-11T13:07:46.771Z,100646.71
2023-05-11T13:10:14.373Z,100644.47
2023-05-11T13:12:51.862Z,100638.95
2023-05-11T13:15:19.850Z,100640.27
2023-05-11T13:17:47.869Z,100633.47
2023-05-11T13:20:28.702Z,100636.08
2023-05-11T13:23:10.200Z,100635.29
2023-05-11T13:25:46.247Z,100631.55
2023-05-11T13:28:17.049Z,100632.07
2023-05-11T13:30:44.165Z,100633.76
2023-05-11T13:33:11.038Z,100634.09
2023-05-11T13:35:41.806Z,100632.70
2023-05-11T13:38:12.070Z,100629.61
2023-05-11T13:40:39.515Z,100627.65
2023-05-11T13:43:06.680Z,100627.48
2023-05-11T13:45:33.725Z,100626.71
2023-05-11T13:48:00.980Z,100625.50
2023-05-11T13:50:27.917Z,100621.38
2023-05-11T13:52:54.865Z,100622.90
2023-05-11T13:55:21.857Z,100619.59
2023-05-11T13:57:49.050Z,100619.10
2023-05-11T14:00:16.816Z,100617.66
2023-05-11T14:02:44.304Z,100613.56
2023-05-11T14:05:11.532Z,100615.99
2023-05-11T14:07:46.777Z,100615.48
2023-05-11T14:10:15.994Z,100612.86
2023-05-11T14:12:43.020Z,100615.80
2023-05-11T14:15:10.508Z,100610.55
2023-05-11T14:17:37.654Z,100610.41
2023-05-11T14:20:08.196Z,100613.79
2023-05-11T14:22:35.116Z,100608.40
2023-05-11T14:25:02.093Z,100610.71
2023-05-11T14:27:28.920Z,100606.02
2023-05-11T14:29:55.944Z,100602.47
2023-05-11T14:32:23.005Z,100602.11
2023-05-11T14:34:50.064Z,100604.97
2023-05-11T14:37:17.016Z,100602.83
2023-05-11T14:39:44.094Z,100606.08
2023-05-11T14:42:10.877Z,100606.36
2023-05-11T14:44:38.076Z,100603.75
2023-05-11T14:47:05.633Z,100602.71
2023-05-11T14:49:32.539Z,100599.12
2023-05-11T14:51:59.778Z,100599.90
2023-05-11T14:54:26.772Z,100598.38
2023-05-11T14:56:55.827Z,100603.14
2023-05-11T14:59:26.452Z,100603.87
2023-05-11T15:01:53.466Z,100600.35
2023-05-11T15:04:20.811Z,100600.32
2023-05-11T15:06:48.138Z,100596.71
2023-05-11T15:09:15.041Z,100598.38
2023-05-11T15:11:41.875Z,100599.17
2023-05-11T15:14:08.702Z,100599.48
2023-05-11T15:16:35.536Z,100595.19
2023-05-11T15:19:02.546Z,100595.36
2023-05-11T15:21:29.616Z,100592.30
2023-05-11T15:23:56.655Z,100593.83
2023-05-11T15:26:23.518Z,100594.11
2023-05-11T15:28:50.366Z,100592.50
2023-05-11T15:31:17.977Z,100590.22
2023-05-11T15:33:45.182Z,100593.15
2023-05-11T15:36:13.270Z,100589.98
2023-05-11T15:38:40.992Z,100594.98
2023-05-11T15:41:08.002Z,100593.04
2023-05-11T15:43:34.973Z,100586.58
2023-05-11T15:46:04.107Z,100592.30
2023-05-11T15:48:31.517Z,100593.23
2023-05-11T15:51:01.483Z,100592.91
2023-05-11T15:53:28.944Z,100587.73
2023-05-11T15:55:56.910Z,100593.95
2023-05-11T15:58:23.788Z,100595.02
2023-05-11T16:00:51.503Z,100594.91
2023-05-11T16:03:20.065Z,100594.79
2023-05-11T16:05:47.236Z,100595.56
2023-05-11T16:08:14.754Z,100593.61
2023-05-11T16:10:41.652Z,100597.80
2023-05-11T16:13:09.197Z,100596.27
2023-05-11T16:15:36.077Z,100595.78
2023-05-11T16:18:04.844Z,100596.38
2023-05-11T16:20:32.333Z,100595.86
2023-05-11T16:22:59.470Z,100598.64
2023-05-11T16:25:26.747Z,100600.80
2023-05-11T16:27:53.525Z,100601.20
2023-05-11T16:30:24.901Z,100608.11
2023-05-11T16:32:53.250Z,100603.23
2023-05-11T16:35:20.638Z,100605.55
2023-05-11T16:37:48.113Z,100606.90
2023-05-11T16:40:19.214Z,100607.38
2023-05-11T16:42:47.581Z,100603.24
2023-05-11T16:45:15.331Z,100602.64
2023-05-11T16:47:45.300Z,100604.32
2023-05-11T16:50:16.590Z,100604.55
2023-05-11T16:52:43.837Z,100606.39
2023-05-11T16:55:11.155Z,100606.98
2023-05-11T16:57:38.034Z,100610.81
2023-05-11T17:00:06.987Z,100610.14
2023-05-11T17:02:34.009Z,100615.36
2023-05-11T17:07:10.376Z,100616.38
2023-05-11T17:09:37.192Z,100612.95
2023-05-11T17:12:07.284Z,100616.83
2023-05-11T17:14:34.100Z,100614.86
2023-05-11T17:25:03.427Z,100625.05
2023-05-11T17:27:31.319Z,100627.42
2023-05-11T17:29:58.184Z,100631.69
2023-05-11T17:32:25.441Z,100630.81
2023-05-11T17:34:52.639Z,100633.33
2023-05-11T17:37:30.508Z,100635.64
2023-05-11T17:39:58.467Z,100637.60
2023-05-11T17:42:26.229Z,100642.19
2023-05-11T17:44:53.111Z,100647.31
2023-05-11T17:47:20.006Z,100646.29
2023-05-11T17:49:46.904Z,100648.83
2023-05-11T17:52:15.496Z,100649.45
2023-05-11T17:54:42.452Z,100655.84
2023-05-11T17:57:10.058Z,100657.50
2023-05-11T17:59:37.004Z,100659.45
2023-05-11T18:02:04.468Z,100662.53
2023-05-11T18:04:31.350Z,100664.50
2023-05-11T18:13:39.190Z,100672.77
2023-05-11T18:16:06.636Z,100674.42
2023-05-11T18:18:34.070Z,100676.16
2023-05-11T18:21:05.528Z,100675.63
2023-05-11T18:23:32.516Z,100676.70
2023-05-11T18:25:59.409Z,100681.52
2023-05-11T18:28:26.276Z,100676.52
2023-05-11T18:33:57.921Z,100687.80
2023-05-11T18:36:25.032Z,100686.66
2023-05-11T18:38:52.034Z,100691.30
2023-05-11T18:41:19.065Z,100692.89
2023-05-11T18:43:47.870Z,100696.98
2023-05-11T18:46:14.935Z,100698.04
2023-05-11T18:48:41.752Z,100699.43
2023-05-11T18:51:09.024Z,100697.80
2023-05-11T18:53:35.928Z,100695.20
2023-05-11T18:56:02.986Z,100699.02
2023-05-11T18:58:30.163Z,100701.42
2023-05-11T19:00:57.225Z,100699.20
2023-05-11T19:03:24.587Z,100700.48
2023-05-11T19:05:51.853Z,100697.23
2023-05-11T19:08:18.997Z,100696.04
2023-05-11T19:10:47.485Z,100694.63
2023-05-11T19:13:15.104Z,100694.96
2023-05-11T19:15:42.114Z,100696.95
2023-05-11T19:18:09.238Z,100696.10
2023-05-11T19:20:39.006Z,100695.27
2023-05-11T19:23:06.126Z,100694.09
2023-05-11T19:25:33.175Z,100690.77
2023-05-11T19:28:00.454Z,100695.56
2023-05-11T19:30:27.276Z,100696.77
2023-05-11T19:32:53.992Z,100697.65
2023-05-11T19:35:21.069Z,100699.23
2023-05-11T19:37:49.962Z,100700.81
2023-05-11T19:42:47.817Z,100703.64
2023-05-11T19:45:15.043Z,100703.61
2023-05-11T19:47:41.994Z,100710.52
2023-05-11T19:50:10.468Z,100709.20
2023-05-11T19:52:38.414Z,100709.13
2023-05-11T19:55:06.012Z,100708.68
2023-05-11T19:57:36.594Z,100704.33
2023-05-11T20:00:07.332Z,100703.04
2023-05-11T20:02:35.291Z,100704.95
2023-05-11T20:05:03.694Z,100708.46
2023-05-11T20:07:31.548Z,100705.53
2023-05-11T20:09:58.370Z,100705.10
2023-05-11T20:12:25.296Z,100707.52
2023-05-11T20:14:52.382Z,100703.15
2023-05-11T20:17:19.065Z,100703.05
2023-05-11T20:19:45.869Z,100699.72
2023-05-11T20:22:12.848Z,100701.04
2023-05-11T20:24:39.762Z,100702.54
2023-05-11T20:27:08.989Z,100701.00
2023-05-11T20:29:35.884Z,100704.64
2023-05-11T20:32:02.847Z,100698.99
2023-05-11T20:34:29.785Z,100701.39
2023-05-11T20:36:56.742Z,100699.66
2023-05-11T20:39:23.534Z,100701.34
2023-05-11T20:41:50.263Z,100702.66
2023-05-11T20:44:17.048Z,100703.10
2023-05-11T20:54:54.779Z,100705.14
2023-05-11T20:57:21.773Z,100706.70
2023-05-11T21:02:19.938Z,100711.54
2023-05-11T21:04:47.126Z,100709.86
2023-05-11T21:10:32.261Z,100722.57
2023-05-11T21:13:00.803Z,100719.99
2023-05-11T21:15:27.635Z,100724.64
2023-05-11T21:17:54.330Z,100721.52
2023-05-11T21:20:21.521Z,100722.31
2023-05-11T21:22:48.235Z,100720.45
2023-05-11T21:25:14.946Z,100720.90
2023-05-11T21:27:42.123Z,100727.73
2023-05-11T21:30:09.439Z,100731.38
2023-05-11T21:32:37.067Z,100734.33
2023-05-11T21:35:04.555Z,100734.59
2023-05-11T21:37:33.247Z,100735.55
2023-05-11T21:40:00.042Z,100736.14
2023-05-11T21:42:26.798Z,100739.06
2023-05-11T21:44:53.448Z,100740.73
2023-05-11T21:47:20.278Z,100737.40
2023-05-11T21:49:48.194Z,100741.59
2023-05-11T21:52:16.920Z,100740.35
2023-05-11T21:54:43.689Z,100741.48
2023-05-11T21:57:10.412Z,100742.77
2023-05-11T21:59:37.041Z,100744.78
2023-05-11T22:02:03.979Z,100743.58
2023-05-11T22:04:30.834Z,100745.73
2023-05-11T22:07:01.621Z,100746.67
2023-05-11T22:09:29.463Z,100745.28
2023-05-11T22:11:56.868Z,100747.61
2023-05-11T22:14:23.547Z,100748.18
2023-05-11T22:16:50.302Z,100748.01
2023-05-11T22:19:17.283Z,100750.51
2023-05-11T22:21:44.022Z,100748.76
2023-05-11T22:24:10.965Z,100747.34
2023-05-11T22:26:37.638Z,100751.98
2023-05-11T22:29:04.936Z,100749.67
2023-05-11T22:31:31.687Z,100752.70
2023-05-11T22:33:58.671Z,100748.64
2023-05-11T22:36:25.241Z,100750.61
2023-05-11T22:46:33.598Z,100749.33
2023-05-11T22:49:00.543Z,100751.11
2023-05-11T22:51:27.530Z,100748.98
2023-05-11T22:53:55.012Z,100751.99
2023-05-11T22:56:22.373Z,100752.17
2023-05-11T22:58:49.134Z,100755.05
2023-05-11T23:01:15.976Z,100758.98
2023-05-11T23:03:42.932Z,100760.45
2023-05-11T23:06:09.847Z,100756.21
2023-05-11T23:08:36.748Z,100750.91
2023-05-11T23:11:04.482Z,100746.84
2023-05-11T23:13:31.269Z,100749.33
2023-05-11T23:15:58.102Z,100754.29
2023-05-11T23:18:25.034Z,100749.52
2023-05-11T23:20:56.830Z,100745.27
2023-05-11T23:23:24.486Z,100742.63
2023-05-11T23:25:52.152Z,100744.21
2023-05-11T23:28:19.568Z,100740.28
2023-05-11T23:30:46.672Z,100738.14
2023-05-11T23:33:14.533Z,100739.04
2023-05-11T23:35:41.602Z,100738.71
2023-05-11T23:38:08.477Z,100736.23
2023-05-11T23:40:35.731Z,100736.59
2023-05-11T23:43:02.527Z,100731.09
2023-05-11T23:45:29.324Z,100730.73
2023-05-11T23:47:56.452Z,100735.02
2023-05-11T23:50:23.564Z,100736.83
2023-05-11T23:52:50.365Z,100736.30
2023-05-11T23:55:17.278Z,100741.82
2023-05-11T23:57:44.994Z,100740.43
